Time;durP1;ratioP1;P1;durP2;ratioP2;P2;SDS_P1;SDS_P2;PMS_P1;PMS_P2;Temp;Humidity;BMP_temperature;BMP_pressure;BME280_temperature;BME280_humidity;BME280_pressure;Samples;Min_cycle;Max_cycle;Signal;HPM_P1;HPM_P2
2022/08/02 00:00:53;;;;;;;2.63;2.20;;;;;;;19.76;67.21;100673.50;5042202;28;20517;-66
2022/08/02 00:03:22;;;;;;;2.88;2.17;;;;;;;19.75;66.79;100668.31;5027306;28;20036;-66
2022/08/02 00:05:49;;;;;;;2.50;2.03;;;;;;;19.72;66.60;100667.72;5038610;28;20263;-66
2022/08/02 00:08:15;;;;;;;2.70;1.90;;;;;;;19.75;66.61;100666.47;5037510;28;20045;-66
2022/08/02 00:10:42;;;;;;;2.70;2.40;;;;;;;19.73;67.56;100664.00;5030376;28;20163;-66
2022/08/02 00:13:08;;;;;;;2.40;2.10;;;;;;;19.70;67.34;100658.22;5042516;28;20299;-66
2022/08/02 00:15:34;;;;;;;3.10;2.40;;;;;;;19.67;67.67;100656.75;5022154;28;20079;-66
2022/08/02 00:18:03;;;;;;;3.15;2.22;;;;;;;19.64;67.15;100670.59;5037465;28;20033;-66
2022/08/02 00:20:30;;;;;;;2.40;2.00;;;;;;;19.58;67.51;100671.41;5037399;28;20517;-68
2022/08/02 00:22:55;;;;;;;2.55;2.00;;;;;;;19.53;67.75;100668.53;5044101;28;20029;-66
2022/08/02 00:25:21;;;;;;;3.05;2.42;;;;;;;19.46;67.83;100665.84;5047079;28;20074;-66
2022/08/02 00:27:48;;;;;;;2.67;2.20;;;;;;;19.44;67.69;100661.72;5045358;28;20291;-66
2022/08/02 00:30:14;;;;;;;3.35;2.42;;;;;;;19.40;68.06;100668.50;5038954;28;20057;-66
2022/08/02 00:32:43;;;;;;;2.45;2.00;;;;;;;19.36;67.82;100657.38;5035513;28;20053;-66
2022/08/02 00:35:10;;;;;;;3.63;2.03;;;;;;;19.30;67.77;100653.66;5044985;28;20493;-66
2022/08/02 00:37:39;;;;;;;2.63;2.00;;;;;;;19.29;68.08;100652.03;5039821;28;20079;-67
2022/08/02 00:40:07;;;;;;;3.20;2.53;;;;;;;19.35;68.28;100654.91;5033739;28;20527;-67
2022/08/02 00:42:33;;;;;;;3.03;2.60;;;;;;;19.38;69.22;100651.81;5037722;28;20040;-66
2022/08/02 00:44:58;;;;;;;3.25;2.40;;;;;;;19.38;68.38;100652.66;5043120;28;20468;-67
2022/08/02 00:47:25;;;;;;;4.25;2.70;;;;;;;19.33;68.89;100652.44;5044818;28;20033;-66
2022/08/02 00:49:51;;;;;;;2.58;2.08;;;;;;;19.27;69.06;100654.09;5041694;28;20044;-67
2022/08/02 00:52:17;;;;;;;3.30;2.45;;;;;;;19.18;69.47;100660.66;5042090;28;20052;-67
2022/08/02 00:54:44;;;;;;;4.57;2.13;;;;;;;19.12;69.12;100664.19;5041309;28;20140;-66
2022/08/02 00:57:10;;;;;;;3.05;2.15;;;;;;;19.06;69.05;100668.50;5041223;28;20040;-66
2022/08/02 00:59:36;;;;;;;2.50;2.10;;;;;;;19.00;69.33;100665.81;5043459;28;20047;-66
2022/08/02 01:02:02;;;;;;;2.90;2.40;;;;;;;18.94;69.66;100672.81;5041646;28;20132;-66
2022/08/02 01:04:28;;;;;;;3.05;2.60;;;;;;;18.87;70.09;100683.50;5037040;28;20079;-66
2022/08/02 01:06:55;;;;;;;3.30;2.88;;;;;;;18.85;70.46;100688.25;5037724;28;20041;-66
2022/08/02 01:09:21;;;;;;;4.07;2.80;;;;;;;18.82;70.79;100694.00;5039147;28;20091;-66
2022/08/02 01:11:48;;;;;;;3.83;2.90;;;;;;;18.82;70.52;100688.66;5030832;28;20059;-66
2022/08/02 01:14:16;;;;;;;3.47;3.00;;;;;;;18.83;70.79;100690.31;5044098;28;20062;-67
2022/08/02 01:16:49;;;;;;;5.80;3.38;;;;;;;18.87;70.55;100696.06;5037241;28;20316;-65
2022/08/02 01:19:34;;;;;;;3.58;2.97;;;;;;;18.92;71.11;100698.16;5037897;28;20029;-66
2022/08/02 01:22:37;;;;;;;3.92;3.22;;;;;;;18.97;70.71;100701.03;5040631;28;20542;-68
2022/08/02 01:25:33;;;;;;;4.03;3.20;;;;;;;19.06;70.04;100699.84;5035714;28;20045;-68
2022/08/02 01:28:20;;;;;;;3.72;3.00;;;;;;;19.17;69.87;100701.91;5038408;28;20041;-65
2022/08/02 01:30:50;;;;;;;5.03;3.55;;;;;;;19.20;70.18;100701.50;5043991;28;20033;-66
2022/08/02 01:33:18;;;;;;;4.22;3.60;;;;;;;19.21;70.31;100708.53;5038608;28;20389;-66
2022/08/02 01:35:49;;;;;;;4.60;3.78;;;;;;;19.21;70.41;100710.38;5038477;28;20052;-66
2022/08/02 01:38:38;;;;;;;4.85;3.92;;;;;;;19.21;70.28;100703.19;5032671;28;20401;-66
2022/08/02 01:41:06;;;;;;;4.43;3.70;;;;;;;19.20;70.27;100704.19;5036346;28;20086;-66
2022/08/02 01:43:35;;;;;;;4.00;3.53;;;;;;;19.22;70.48;100710.19;5040271;28;20106;-66
2022/08/02 01:46:03;;;;;;;4.55;3.88;;;;;;;19.24;70.54;100702.75;5040811;28;20053;-66
2022/08/02 01:48:33;;;;;;;7.10;3.80;;;;;;;19.24;70.42;100702.75;5033315;28;20041;-66
2022/08/02 01:51:01;;;;;;;4.40;3.75;;;;;;;19.23;70.54;100697.59;5038662;28;20029;-66
2022/08/02 01:53:29;;;;;;;4.82;3.50;;;;;;;19.25;69.88;100695.53;5042204;28;20207;-66
2022/08/02 01:55:59;;;;;;;3.30;3.00;;;;;;;19.23;69.67;100698.41;5026923;28;20566;-66
2022/08/02 01:58:34;;;;;;;3.78;3.17;;;;;;;19.22;69.77;100695.94;5033469;28;20072;-66
2022/08/02 02:01:01;;;;;;;3.30;3.00;;;;;;;19.17;69.69;100695.75;5043183;28;20460;-69
2022/08/02 02:03:31;;;;;;;3.78;3.05;;;;;;;19.12;70.54;100687.50;5043981;28;20125;-66
2022/08/02 02:05:59;;;;;;;3.63;2.72;;;;;;;19.06;70.01;100681.06;5046481;28;20075;-66
2022/08/02 02:08:38;;;;;;;2.90;2.60;;;;;;;18.98;70.44;100682.09;5047445;28;20048;-66
2022/08/02 02:11:06;;;;;;;3.22;2.78;;;;;;;18.90;70.58;100690.31;5028670;28;20054;-66
2022/08/02 02:13:41;;;;;;;4.10;3.50;;;;;;;18.80;71.21;100688.03;5029680;28;20026;-66
2022/08/02 02:16:08;;;;;;;3.95;3.28;;;;;;;18.71;71.16;100689.22;5043330;28;20040;-66
2022/08/02 02:18:40;;;;;;;3.13;2.55;;;;;;;18.67;71.48;100691.47;5047711;28;20033;-66
2022/08/02 02:21:06;;;;;;;4.53;3.47;;;;;;;18.64;71.63;100691.88;5046787;28;20037;-66
2022/08/02 02:23:33;;;;;;;3.45;2.97;;;;;;;18.63;71.38;100695.56;5015264;28;20043;-66
2022/08/02 02:26:02;;;;;;;3.72;3.33;;;;;;;18.63;71.30;100692.06;5031728;28;20450;-66
2022/08/02 02:28:30;;;;;;;3.55;3.03;;;;;;;18.62;71.73;100683.22;5047039;28;20115;-66
2022/08/02 02:31:22;;;;;;;4.72;3.80;;;;;;;18.62;71.73;100688.56;5030377;28;20056;-66
2022/08/02 02:33:49;;;;;;;4.60;3.72;;;;;;;18.59;72.26;100682.75;5035826;28;20037;-66
2022/08/02 02:36:18;;;;;;;4.63;3.78;;;;;;;18.54;72.63;100679.88;5045816;28;20059;-66
2022/08/02 02:38:46;;;;;;;4.40;3.78;;;;;;;18.49;72.47;100685.81;5046055;28;20064;-66
2022/08/02 02:41:14;;;;;;;4.00;3.28;;;;;;;18.42;72.90;100683.13;5046998;28;20124;-66
2022/08/02 02:43:42;;;;;;;3.97;3.58;;;;;;;18.38;73.11;100681.88;5045611;28;20033;-66
2022/08/02 02:46:12;;;;;;;4.40;4.00;;;;;;;18.33;74.13;100668.28;5047228;28;20032;-67
2022/08/02 02:48:40;;;;;;;4.82;3.92;;;;;;;18.28;74.54;100675.22;5046139;28;20040;-66
2022/08/02 02:51:07;;;;;;;5.28;3.65;;;;;;;18.28;74.86;100681.41;5040996;28;20061;-66
2022/08/02 02:53:35;;;;;;;4.20;3.33;;;;;;;18.32;73.88;100669.28;5027668;28;20549;-66
2022/08/02 02:56:01;;;;;;;3.40;2.90;;;;;;;18.32;73.99;100684.53;5041268;28;20037;-66
2022/08/02 02:58:28;;;;;;;2.95;2.60;;;;;;;18.31;73.63;100682.88;5040454;28;20124;-66
2022/08/02 03:03:42;;;;;;;3.92;3.10;;;;;;;18.25;73.86;100690.66;5040934;28;20620;-66
2022/08/02 03:06:09;;;;;;;4.35;3.67;;;;;;;18.25;74.43;100693.34;5039190;28;20033;-66
2022/08/02 03:08:38;;;;;;;3.90;3.50;;;;;;;18.32;74.67;100692.56;5037623;28;20067;-66
2022/08/02 03:11:06;;;;;;;4.43;3.65;;;;;;;18.35;73.97;100701.03;5040297;28;20036;-66
2022/08/02 03:13:32;;;;;;;3.90;3.30;;;;;;;18.39;73.96;100704.13;5045500;28;20100;-66
2022/08/02 03:16:00;;;;;;;3.60;3.13;;;;;;;18.42;73.50;100709.91;5046727;28;20418;-66
2022/08/02 03:18:34;;;;;;;4.53;3.78;;;;;;;18.46;73.50;100704.97;5041794;28;20030;-66
2022/08/02 03:21:07;;;;;;;3.22;2.92;;;;;;;18.51;73.66;100707.06;5058826;28;20029;-66
2022/08/02 03:23:34;;;;;;;3.72;3.15;;;;;;;18.52;73.78;100717.59;5042104;28;20128;-66
2022/08/02 03:26:00;;;;;;;4.00;3.33;;;;;;;18.51;73.93;100710.56;5042085;28;20522;-66
2022/08/02 03:28:27;;;;;;;4.82;3.75;;;;;;;18.52;73.50;100719.41;5046483;28;20072;-66
2022/08/02 03:30:53;;;;;;;3.65;3.28;;;;;;;18.49;73.75;100723.31;5042668;28;20044;-66
2022/08/02 03:33:20;;;;;;;5.15;3.95;;;;;;;18.45;73.90;100714.88;5044192;28;20052;-66
2022/08/02 03:35:48;;;;;;;4.05;3.65;;;;;;;18.41;74.01;100720.81;5044529;28;20029;-66
2022/08/02 03:38:17;;;;;;;4.35;3.55;;;;;;;18.38;74.18;100722.03;5047161;28;20098;-66
2022/08/02 03:40:45;;;;;;;4.72;3.20;;;;;;;18.34;74.25;100722.63;5029217;28;20155;-67
2022/08/02 03:43:12;;;;;;;3.13;2.83;;;;;;;18.30;73.93;100724.88;5044624;28;20040;-66
2022/08/02 03:45:46;;;;;;;4.60;3.15;;;;;;;18.26;74.30;100720.94;5037964;28;20477;-66
2022/08/02 03:48:14;;;;;;;3.13;2.83;;;;;;;18.22;74.53;100727.72;5041328;28;20509;-66
2022/08/02 03:50:42;;;;;;;5.15;3.88;;;;;;;18.21;74.82;100715.34;5042630;28;20081;-67
2022/08/02 03:53:08;;;;;;;3.78;3.10;;;;;;;18.24;74.62;100714.97;5043553;28;20517;-66
2022/08/02 03:55:38;;;;;;;3.25;2.80;;;;;;;18.25;74.15;100709.41;5042784;28;20037;-66
2022/08/02 03:58:04;;;;;;;3.53;3.22;;;;;;;18.23;74.36;100706.13;5047418;28;20033;-66
2022/08/02 04:00:30;;;;;;;5.55;3.05;;;;;;;18.23;74.52;100708.78;5045217;28;20043;-66
2022/08/02 04:02:57;;;;;;;2.75;2.38;;;;;;;18.22;74.43;100707.13;5046066;28;20041;-66
2022/08/02 04:05:24;;;;;;;3.70;3.30;;;;;;;18.18;75.34;100705.84;5043438;28;20037;-66
2022/08/02 04:07:50;;;;;;;3.80;3.00;;;;;;;18.17;75.03;100716.78;5041823;28;20040;-66
2022/08/02 04:10:16;;;;;;;3.63;3.05;;;;;;;18.15;75.00;100719.63;5036666;28;20053;-66
2022/08/02 04:12:43;;;;;;;3.35;2.97;;;;;;;18.17;75.18;100708.75;5041236;28;20502;-66
2022/08/02 04:15:12;;;;;;;3.20;2.90;;;;;;;18.15;75.22;100706.25;5042618;28;20037;-66
2022/08/02 04:17:55;;;;;;;4.05;3.33;;;;;;;18.15;75.67;100713.47;5039225;28;20044;-66
2022/08/02 04:20:28;;;;;;;3.67;3.08;;;;;;;18.12;75.49;100714.69;5042189;28;20166;-66
2022/08/02 04:23:00;;;;;;;3.15;2.65;;;;;;;18.12;75.16;100716.53;5041625;28;20103;-67
2022/08/02 04:25:27;;;;;;;3.47;3.17;;;;;;;18.11;75.46;100718.38;5034603;28;20175;-66
2022/08/02 04:27:58;;;;;;;3.80;3.40;;;;;;;18.11;75.93;100714.88;5044662;28;20041;-66
2022/08/02 04:30:25;;;;;;;3.97;3.55;;;;;;;18.09;76.43;100725.78;5042161;28;20033;-66
2022/08/02 04:32:51;;;;;;;3.85;3.22;;;;;;;18.11;76.18;100726.41;5044242;28;20086;-66
2022/08/02 04:35:18;;;;;;;3.88;3.17;;;;;;;18.15;76.17;100726.84;5046656;28;20029;-66
2022/08/02 04:37:44;;;;;;;3.92;3.20;;;;;;;18.18;75.85;100729.13;5039635;28;20057;-67
2022/08/02 04:40:11;;;;;;;3.50;2.97;;;;;;;18.22;75.92;100730.38;5046896;28;20067;-67
2022/08/02 04:42:38;;;;;;;4.30;3.00;;;;;;;18.23;75.90;100729.34;5031291;28;20153;-66
2022/08/02 04:45:06;;;;;;;3.83;3.08;;;;;;;18.25;76.27;100732.66;5048294;28;20044;-66
2022/08/02 04:47:33;;;;;;;4.15;3.20;;;;;;;18.27;76.11;100722.59;5047835;28;20529;-66
2022/08/02 04:49:59;;;;;;;4.47;3.40;;;;;;;18.31;76.65;100726.53;5045103;28;20501;-67
2022/08/02 04:52:26;;;;;;;4.13;3.72;;;;;;;18.35;76.42;100727.81;5049174;28;20057;-66
2022/08/02 04:54:52;;;;;;;4.03;3.53;;;;;;;18.44;75.83;100726.59;5046794;28;20031;-67
2022/08/02 05:00:06;;;;;;;4.45;3.70;;;;;;;18.62;75.68;100726.06;5034907;28;20084;-67
2022/08/02 05:02:32;;;;;;;3.80;3.40;;;;;;;18.68;75.55;100729.78;5031731;28;20228;-66
2022/08/02 05:05:01;;;;;;;4.35;3.60;;;;;;;18.77;75.10;100733.16;5042702;28;20486;-66
2022/08/02 05:07:27;;;;;;;4.38;3.90;;;;;;;18.81;75.06;100737.09;5033659;28;20068;-66
2022/08/02 05:09:53;;;;;;;5.22;4.18;;;;;;;18.82;75.02;100739.56;5039704;28;20056;-66
2022/08/02 05:12:21;;;;;;;4.40;3.40;;;;;;;18.86;74.94;100737.31;5049340;28;20468;-68
2022/08/02 05:14:51;;;;;;;5.85;4.38;;;;;;;18.89;74.95;100740.41;5046738;28;20505;-68
2022/08/02 05:17:19;;;;;;;4.80;4.25;;;;;;;18.94;74.92;100747.00;5043165;28;20090;-65
2022/08/02 05:19:45;;;;;;;4.10;3.70;;;;;;;19.01;74.65;100751.38;5038720;28;20149;-66
2022/08/02 05:22:11;;;;;;;4.32;3.90;;;;;;;19.08;74.34;100749.53;5044795;28;20116;-66
2022/08/02 05:24:38;;;;;;;4.57;3.97;;;;;;;19.17;74.31;100750.19;5063783;28;20452;-66
2022/08/02 05:27:04;;;;;;;4.70;3.97;;;;;;;19.31;74.12;100757.22;5031006;28;20040;-66
2022/08/02 05:29:30;;;;;;;5.00;4.50;;;;;;;19.42;73.74;100755.78;5047893;28;20490;-68
2022/08/02 05:31:56;;;;;;;4.53;4.00;;;;;;;19.56;73.60;100751.25;5048541;28;20452;-66
2022/08/02 05:34:22;;;;;;;5.30;4.22;;;;;;;19.70;73.28;100752.94;5031365;28;20038;-66
2022/08/02 05:36:49;;;;;;;4.18;3.50;;;;;;;19.89;72.54;100758.53;5032250;28;20039;-66
2022/08/02 05:39:15;;;;;;;4.18;2.97;;;;;;;20.02;72.46;100753.16;5044454;28;20044;-66
2022/08/02 05:41:41;;;;;;;3.63;2.92;;;;;;;20.19;71.92;100752.69;5037590;28;20038;-66
2022/08/02 05:44:06;;;;;;;4.00;3.00;;;;;;;20.45;71.65;100751.78;5041138;28;20536;-67
2022/08/02 05:46:32;;;;;;;5.07;3.70;;;;;;;20.58;70.98;100752.63;5037660;28;20037;-66
2022/08/02 05:48:59;;;;;;;4.78;3.88;;;;;;;20.67;70.57;100741.66;5039870;28;20113;-66
2022/08/02 05:51:37;;;;;;;4.05;3.60;;;;;;;20.76;70.06;100746.56;5033666;28;20061;-66
2022/08/02 05:54:22;;;;;;;4.03;3.42;;;;;;;20.95;69.93;100752.88;5022859;28;20044;-67
2022/08/02 05:57:18;;;;;;;3.90;3.17;;;;;;;21.36;69.45;100748.91;5043106;28;20037;-67
2022/08/02 05:59:57;;;;;;;4.50;3.10;;;;;;;21.80;67.38;100746.31;5047530;28;20498;-67
2022/08/02 06:02:36;;;;;;;3.53;2.83;;;;;;;22.14;65.96;100752.22;5047953;28;20041;-66
2022/08/02 06:05:31;;;;;;;3.30;3.00;;;;;;;22.36;64.32;100760.72;5029765;28;20510;-67
2022/08/02 06:07:59;;;;;;;3.40;3.10;;;;;;;22.58;64.11;100764.63;5027329;28;20114;-67
2022/08/02 06:10:27;;;;;;;4.57;3.17;;;;;;;22.90;63.66;100765.22;5046531;28;20045;-67
2022/08/02 06:13:10;;;;;;;4.25;3.25;;;;;;;23.23;63.17;100761.28;5046548;28;20025;-67
2022/08/02 06:15:38;;;;;;;5.88;3.70;;;;;;;23.37;62.19;100763.81;5028215;28;20515;-67
2022/08/02 06:18:05;;;;;;;3.95;3.45;;;;;;;23.67;62.08;100772.69;5033142;28;20035;-67
2022/08/02 06:20:35;;;;;;;3.80;3.28;;;;;;;23.94;61.63;100770.38;5046607;28;20617;-67
2022/08/02 06:23:04;;;;;;;5.50;3.65;;;;;;;24.17;60.74;100761.44;5043162;28;20029;-67
2022/08/02 06:25:32;;;;;;;4.07;3.38;;;;;;;24.28;59.78;100759.78;5026751;28;20108;-67
2022/08/02 06:28:00;;;;;;;3.83;3.03;;;;;;;24.82;59.55;100764.19;5030484;28;20762;-67
2022/08/02 06:30:27;;;;;;;5.05;3.10;;;;;;;25.03;59.13;100763.50;5045728;28;20037;-67
2022/08/02 06:32:54;;;;;;;5.28;3.05;;;;;;;25.25;58.46;100760.94;5044875;28;20108;-67
2022/08/02 06:35:20;;;;;;;4.15;2.78;;;;;;;25.69;57.49;100763.03;5026675;28;20034;-67
2022/08/02 06:37:46;;;;;;;5.10;3.25;;;;;;;25.91;55.93;100763.97;5041035;28;20044;-67
2022/08/02 06:40:29;;;;;;;3.67;2.53;;;;;;;26.31;55.74;100764.78;5045775;28;20045;-67
2022/08/02 06:43:26;;;;;;;3.20;2.30;;;;;;;26.52;52.75;100771.28;5047501;28;20116;-67
2022/08/02 06:45:52;;;;;;;5.05;2.95;;;;;;;26.31;52.98;100759.34;5049662;28;20559;-67
2022/08/02 06:48:18;;;;;;;2.95;2.45;;;;;;;26.32;53.19;100769.97;5051463;28;20033;-67
2022/08/02 06:50:45;;;;;;;2.78;2.03;;;;;;;26.40;52.53;100774.13;5050508;28;20800;-67
2022/08/02 06:53:11;;;;;;;3.10;2.67;;;;;;;26.36;53.49;100781.13;5035784;28;20033;-67
2022/08/02 06:55:37;;;;;;;2.67;2.20;;;;;;;26.36;53.48;100778.41;5030397;28;20041;-67
2022/08/02 06:58:03;;;;;;;2.42;1.83;;;;;;;26.41;53.71;100771.19;5044573;28;20032;-67
2022/08/02 07:00:30;;;;;;;3.08;2.22;;;;;;;26.57;52.04;100774.09;5050979;28;20418;-67
2022/08/02 07:02:57;;;;;;;3.95;2.40;;;;;;;26.40;51.90;100783.06;5038376;28;20041;-67
2022/08/02 07:05:26;;;;;;;3.90;2.75;;;;;;;26.08;52.10;100776.66;5030252;28;20037;-67
2022/08/02 07:07:53;;;;;;;2.10;1.90;;;;;;;25.93;52.60;100783.47;5043026;28;20168;-67
2022/08/02 07:10:19;;;;;;;4.32;2.40;;;;;;;25.79;51.91;100779.44;5050315;28;20489;-67
2022/08/02 07:12:45;;;;;;;1.98;1.58;;;;;;;25.87;52.34;100781.78;5040518;28;20037;-67
2022/08/02 07:15:12;;;;;;;2.28;1.90;;;;;;;26.11;52.44;100781.59;5030140;28;20108;-67
2022/08/02 07:17:38;;;;;;;3.72;1.70;;;;;;;26.25;52.29;100788.31;5038758;28;20091;-67
2022/08/02 07:20:06;;;;;;;2.40;1.95;;;;;;;26.41;51.17;100786.59;5050731;28;20036;-67
2022/08/02 07:22:32;;;;;;;2.45;1.90;;;;;;;26.64;51.44;100785.59;5043426;28;20060;-67
2022/08/02 07:25:04;;;;;;;2.50;2.17;;;;;;;26.93;50.53;100783.47;5031285;28;20053;-67
2022/08/02 07:27:30;;;;;;;3.83;1.75;;;;;;;27.14;49.75;100786.41;5030286;28;20427;-67
2022/08/02 07:29:56;;;;;;;3.47;1.80;;;;;;;27.39;49.14;100786.72;5030155;28;20288;-67
2022/08/02 07:32:27;;;;;;;2.40;1.40;;;;;;;27.60;49.09;100781.44;5031214;28;20045;-68
2022/08/02 07:34:54;;;;;;;2.28;1.15;;;;;;;28.02;49.08;100773.34;5014974;28;20037;-67
2022/08/02 07:37:22;;;;;;;1.63;1.10;;;;;;;28.45;48.59;100768.69;5049962;28;20306;-67
2022/08/02 07:39:48;;;;;;;1.92;1.40;;;;;;;28.85;46.96;100769.16;5050268;28;20057;-67
2022/08/02 07:42:15;;;;;;;1.88;1.30;;;;;;;29.16;46.68;100767.34;5050952;28;20511;-68
2022/08/02 07:44:41;;;;;;;1.90;1.17;;;;;;;29.66;45.70;100765.72;5049936;28;20462;-67
2022/08/02 07:47:07;;;;;;;;;;;;;;;29.98;45.65;100776.34;5031599;28;20045;-68
2022/08/02 07:49:32;;;;;;;;;;;;;;;30.48;44.55;100769.13;5052269;28;19939;-68
2022/08/02 07:51:58;;;;;;;;;;;;;;;30.94;42.56;100770.88;5048789;28;19917;-68
2022/08/02 07:54:24;;;;;;;;;;;;;;;31.15;42.06;100777.00;5045616;28;19920;-68
2022/08/02 07:56:53;;;;;;;;;;;;;;;31.58;41.77;100769.03;5049714;28;20369;-68
2022/08/02 07:59:20;;;;;;;1.77;1.10;;;;;;;31.92;39.54;100763.53;5053405;28;19913;-68
2022/08/02 08:01:48;;;;;;;1.33;0.90;;;;;;;31.99;39.36;100768.72;5051113;28;20029;-68
2022/08/02 08:04:17;;;;;;;0.70;0.70;;;;;;;32.34;38.11;100762.00;5047134;28;20401;-68
2022/08/02 08:06:43;;;;;;;1.45;1.13;;;;;;;32.21;37.40;100753.69;5050036;28;20045;-67
2022/08/02 08:09:15;;;;;;;1.55;0.80;;;;;;;32.45;36.69;100764.63;5049602;28;20389;-68
2022/08/02 08:11:41;;;;;;;1.67;1.02;;;;;;;32.41;36.83;100756.16;5029945;28;20033;-68
2022/08/02 08:14:08;;;;;;;1.42;0.80;;;;;;;32.71;36.04;100757.72;5039744;28;20401;-68
2022/08/02 08:16:33;;;;;;;1.05;0.73;;;;;;;32.72;36.46;100748.41;5050145;28;20025;-68
2022/08/02 08:19:00;;;;;;;1.90;0.90;;;;;;;33.02;35.23;100756.50;5051428;28;20052;-68
2022/08/02 08:21:26;;;;;;;1.52;1.02;;;;;;;32.92;34.80;100751.97;5030435;28;20029;-68
2022/08/02 08:23:52;;;;;;;1.00;0.80;;;;;;;33.36;35.07;100748.03;5034133;28;20486;-67
2022/08/02 08:26:17;;;;;;;0.85;0.70;;;;;;;34.09;33.83;100748.44;5048540;28;20937;-68
2022/08/02 08:28:43;;;;;;;1.03;0.80;;;;;;;34.10;32.34;100742.63;5044728;28;20424;-68
2022/08/02 08:31:09;;;;;;;0.88;0.70;;;;;;;34.17;32.52;100750.44;5049128;28;20055;-68
2022/08/02 08:33:35;;;;;;;;;;;;;;;34.30;30.95;100749.66;5050846;28;20037;-68
2022/08/02 08:36:01;;;;;;;;;;;;;;;34.38;30.51;100753.59;5049840;28;19916;-68
2022/08/02 08:38:26;;;;;;;;;;;;;;;34.88;30.94;100748.13;5049495;28;19912;-68
2022/08/02 08:40:53;;;;;;;1.15;0.70;;;;;;;35.45;29.80;100745.66;5047810;28;19943;-68
2022/08/02 08:43:18;;;;;;;;;;;;;;;35.55;29.62;100744.59;5049561;28;20033;-68
2022/08/02 08:45:46;;;;;;;;;;;;;;;35.56;28.13;100751.69;5045354;28;19923;-68
2022/08/02 08:48:12;;;;;;;;;;;;;;;35.92;28.55;100746.09;5044104;28;20296;-68
2022/08/02 08:50:42;;;;;;;;;;;;;;;36.56;27.60;100745.63;5049165;28;20001;-68
2022/08/02 08:53:08;;;;;;;0.95;0.80;;;;;;;37.30;27.04;100743.91;5038783;28;20220;-68
2022/08/02 08:55:36;;;;;;;2.05;0.70;;;;;;;37.99;25.52;100742.09;5041787;28;20528;-68
2022/08/02 08:58:04;;;;;;;0.98;0.70;;;;;;;38.25;25.51;100750.28;5047616;28;20033;-68
2022/08/02 09:00:31;;;;;;;;;;;;;;;38.12;23.68;100749.38;5048526;28;20033;-68
2022/08/02 09:03:01;;;;;;;0.75;0.68;;;;;;;37.97;25.05;100749.88;5048705;28;19912;-68
2022/08/02 09:05:27;;;;;;;;;;;;;;;38.58;24.75;100752.38;5049943;28;20071;-68
2022/08/02 09:07:53;;;;;;;;;;;;;;;38.92;24.01;100754.06;5038067;28;19979;-68
2022/08/02 09:10:37;;;;;;;;;;;;;;;39.13;22.41;100751.28;5045214;28;20246;-68
2022/08/02 09:13:09;;;;;;;;;;;;;;;38.44;23.28;100750.63;5043944;28;19916;-68
2022/08/02 09:15:36;;;;;;;;;;;;;;;38.15;23.36;100745.13;5033469;28;19921;-68
2022/08/02 09:18:05;;;;;;;;;;;;;;;37.94;23.21;100745.84;5042551;28;19921;-69
2022/08/02 09:20:32;;;;;;;;;;;;;;;37.99;23.18;100744.84;5048698;28;19924;-69
2022/08/02 09:23:08;;;;;;;;;;;;;;;37.97;23.18;100738.84;5031079;28;19967;-68
2022/08/02 09:25:35;;;;;;;1.73;0.80;;;;;;;38.08;22.22;100740.13;5059714;28;19916;-68
2022/08/02 09:28:03;;;;;;;0.80;0.70;;;;;;;38.43;21.81;100734.41;5045353;28;20035;-68
2022/08/02 09:30:29;;;;;;;;;;;;;;;38.33;21.84;100732.84;5035592;28;20041;-68
2022/08/02 09:32:54;;;;;;;;;;;;;;;38.70;21.96;100722.03;5035772;28;19924;-68
2022/08/02 09:35:33;;;;;;;0.80;0.63;;;;;;;39.20;20.98;100725.84;5044765;28;19971;-68
2022/08/02 09:38:10;;;;;;;1.60;0.95;;;;;;;38.88;21.58;100731.00;5041850;28;20191;-68
2022/08/02 09:40:38;;;;;;;2.13;0.90;;;;;;;39.32;21.62;100731.41;5038472;28;20176;-68
2022/08/02 09:43:06;;;;;;;1.60;0.60;;;;;;;39.94;21.02;100734.31;5018070;28;20025;-68
2022/08/02 09:45:36;;;;;;;;;;;;;;;40.02;20.68;100733.38;5031542;28;20041;-68
2022/08/02 09:48:06;;;;;;;0.98;0.70;;;;;;;40.81;20.26;100728.34;5057868;28;19970;-69
2022/08/02 09:50:38;;;;;;;1.60;0.77;;;;;;;41.36;19.27;100725.91;5049153;28;20578;-68
2022/08/02 09:53:05;;;;;;;1.10;0.70;;;;;;;41.96;19.18;100723.88;5048087;28;20547;-68
2022/08/02 09:55:33;;;;;;;1.33;0.70;;;;;;;42.01;18.79;100731.94;5036682;28;20044;-68
2022/08/02 09:58:20;;;;;;;1.02;0.60;;;;;;;41.97;18.25;100733.81;5027674;28;20440;-68
2022/08/02 10:00:57;;;;;;;0.93;0.70;;;;;;;41.86;18.97;100718.03;5038212;28;20034;-68
2022/08/02 10:03:24;;;;;;;1.55;0.80;;;;;;;42.13;18.04;100719.91;5022458;28;20425;-68
2022/08/02 10:05:57;;;;;;;0.98;0.70;;;;;;;42.97;17.90;100720.53;5027606;28;20744;-68
2022/08/02 10:08:24;;;;;;;1.03;0.60;;;;;;;43.72;16.97;100712.75;5019283;28;20409;-68
2022/08/02 10:10:59;;;;;;;0.77;0.63;;;;;;;44.13;16.75;100713.00;5008057;28;20774;-68
2022/08/02 10:13:44;;;;;;;0.70;0.60;;;;;;;44.48;16.76;100721.06;5018403;28;20439;-68
2022/08/02 10:16:11;;;;;;;0.77;0.68;;;;;;;43.76;16.56;100708.03;5006091;28;20737;-68
2022/08/02 10:18:37;;;;;;;0.85;0.60;;;;;;;42.91;16.65;100710.84;5008690;28;20581;-68
2022/08/02 10:21:09;;;;;;;0.70;0.60;;;;;;;42.66;17.18;100708.38;5018298;28;20401;-69
2022/08/02 10:23:39;;;;;;;0.52;0.50;;;;;;;43.05;17.17;100705.56;5006280;28;20396;-68
2022/08/02 10:26:07;;;;;;;0.73;0.50;;;;;;;43.48;16.85;100709.16;5006321;28;20440;-68
2022/08/02 10:28:33;;;;;;;0.67;0.60;;;;;;;43.96;16.10;100706.75;5007777;28;20401;-68
2022/08/02 10:31:01;;;;;;;0.50;0.50;;;;;;;43.72;16.42;100698.81;5007253;28;20821;-68
2022/08/02 10:33:33;;;;;;;0.80;0.60;;;;;;;43.64;15.85;100701.47;4990142;28;20452;-68
2022/08/02 10:36:01;;;;;;;0.77;0.60;;;;;;;43.80;16.31;100697.75;5025840;28;20804;-68
2022/08/02 10:38:28;;;;;;;1.17;0.55;;;;;;;44.66;16.08;100696.97;5024254;28;20404;-68
2022/08/02 10:40:55;;;;;;;0.65;0.60;;;;;;;45.36;15.40;100700.13;5029682;28;20438;-69
2022/08/02 10:43:36;;;;;;;0.50;0.40;;;;;;;45.47;15.15;100689.88;5018621;28;20415;-69
2022/08/02 10:46:35;;;;;;;0.50;0.50;;;;;;;45.84;14.66;100682.56;5029970;28;20432;-68
2022/08/02 10:49:01;;;;;;;0.40;0.40;;;;;;;46.31;14.38;100678.84;5040910;28;20412;-68
2022/08/02 10:52:07;;;;;;;0.52;0.50;;;;;;;46.36;14.00;100680.50;5008904;28;20058;-68
2022/08/02 10:54:36;;;;;;;0.70;0.60;;;;;;;46.49;14.56;100675.38;5026756;28;20517;-69
2022/08/02 10:57:02;;;;;;;;;;;;;;;47.09;14.29;100666.31;5028316;28;20673;-69
2022/08/02 10:59:36;;;;;;;0.90;0.50;;;;;;;47.31;12.92;100666.34;5027994;28;19936;-69
2022/08/02 11:02:05;;;;;;;0.80;0.55;;;;;;;47.22;13.32;100666.75;5020662;28;20042;-69
2022/08/02 11:04:55;;;;;;;0.70;0.65;;;;;;;46.47;13.26;100663.78;5012163;28;20041;-69
2022/08/02 11:07:36;;;;;;;0.93;0.70;;;;;;;45.74;13.74;100667.34;5025238;28;20033;-69
2022/08/02 11:10:41;;;;;;;0.80;0.60;;;;;;;45.38;13.84;100666.25;4991679;28;20080;-69
2022/08/02 11:13:20;;;;;;;1.08;0.50;;;;;;;45.69;13.96;100664.91;4992863;28;20034;-69
2022/08/02 11:16:00;;;;;;;1.35;0.50;;;;;;;45.88;13.49;100666.63;5013231;28;20076;-69
2022/08/02 11:18:50;;;;;;;1.77;0.70;;;;;;;46.37;13.37;100660.53;5005475;28;20037;-66
2022/08/02 11:21:27;;;;;;;2.10;0.80;;;;;;;46.81;12.82;100664.28;5026626;28;20184;-69
2022/08/02 11:23:54;;;;;;;1.05;0.65;;;;;;;46.21;13.07;100662.84;5013808;28;20387;-68
2022/08/02 11:26:29;;;;;;;0.85;0.60;;;;;;;45.93;12.82;100655.88;5006324;28;20072;-68
2022/08/02 11:28:57;;;;;;;0.80;0.60;;;;;;;45.68;12.92;100654.94;5012760;28;20420;-68
2022/08/02 11:31:23;;;;;;;0.80;0.60;;;;;;;45.64;13.30;100642.94;5008017;28;20038;-68
2022/08/02 11:33:50;;;;;;;0.73;0.63;;;;;;;45.95;13.32;100645.09;5011445;28;20038;-68
2022/08/02 11:36:17;;;;;;;1.10;0.70;;;;;;;46.59;12.37;100652.22;5011033;28;20038;-68
2022/08/02 11:38:44;;;;;;;1.73;0.63;;;;;;;46.30;12.57;100646.50;4994512;28;20063;-68
2022/08/02 11:41:21;;;;;;;1.17;0.70;;;;;;;45.86;13.12;100633.47;5047514;28;20033;-68
2022/08/02 11:43:54;;;;;;;2.95;0.82;;;;;;;46.71;11.81;100632.25;5026951;28;20140;-68
2022/08/02 11:46:20;;;;;;;4.80;0.85;;;;;;;46.34;12.56;100630.56;5019072;28;20048;-68
2022/08/02 11:48:46;;;;;;;1.13;0.55;;;;;;;46.35;12.69;100634.16;5025115;28;20033;-68